Aérodrome :
LOGIN :

S'inscrire | Disclaimer

   EN    FR    IT 

 










Légende :    VFR   VFR Marginal   IFR   IFR Intensif   IFR Très Intensif
Visi : 
Plafond : 
>= 8 km
>= 3000ft
5 à 8 km
1000 à 3000 ft
1500m à 5 km
500 à 1000 ft
800 à 1500m
200 à 500 ft
< 800m
< 200 ft
Symboles :   Orages  Brouillard  Fortes neiges  Fortes précipitations  Vent > 20 kt
SIGMETs :   Divers  Orages  Givrage  Turbulence  Onde Orograph.  Cendres Volcan.







- Altitude de l'aérodrome : 1079 ft


ETIK - Illesheim Air Base

DERNIER METAR :
  • 181556Z AUTO 29008KT 9999 CLR 28/15 A3014 RMK AO2 SLP193 T02820148 $

METARs EXPIRÉS :
  • 181456Z AUTO 00000KT 9999 CLR 28/15 A3014 RMK AO2 SLP193 T02760149 57011 $
  • 181356Z AUTO 32006KT 9999 CLR 28/15 A3015 RMK AO2 SLP198 T02760149 $

TAF AMD TAF ETIK
Valide du 17 à 19h jusqu'au 18 à 19h UTC


171910Z 1719/1819 23012KT 8000 -SHRA BKN060 QNH3000INS
TEMPO 1719/1720 23015G25KT 8000 -TSRA BKN060CB
BECMG 1722/1723 VRB06KT 9999 NSW SCT060 QNH3003INS
BECMG 1801/1802 VRB06KT 9999 SCT020 QNH3005INS
BECMG 1805/1806 30009KT 9999 BKN060 QNH3008INS TX30/1815Z TN15/1803Z LAST NO AMDS AFT 1719 NEXT 2004
Pas de NOTAMs connus pour ce terrain.



MET'MAP, la Météo Aéronautique d'un coup d'oeil ! - Copyright ORBIFLY Décembre 2007 - Disclaimer

ORBIFLY MET'MAP TEAM :

Programmation & Développement : Alexandra Zaïnal
Conception & Développement : Baudouin d'Aumeries
Co-Programmation & Développement : Marc-Olivier Méhu
Soutien technique & logistique : Manuel Goepfert

Contact : metmap@orbifly.com




SOURCES & CREDITS :

   NOAA